Time;durP1;ratioP1;P1;durP2;ratioP2;P2;SDS_P1;SDS_P2;PMS_P1;PMS_P2;Temp;Humidity;BMP_temperature;BMP_pressure;BME280_temperature;BME280_humidity;BME280_pressure;Samples;Min_cycle;Max_cycle;Signal;HPM_P1;HPM_P2
2023/01/17 00:03:30;;;;;;;3.53;2.20;;;3.80;99.90;;;;;;7284556;32;20211;-59
2023/01/17 00:11:52;;;;;;;2.70;2.10;;;3.80;99.90;;;;;;7281354;32;20566;-59
2023/01/17 00:15:53;;;;;;;4.22;2.28;;;3.70;99.90;;;;;;7282566;32;20104;-60
2023/01/17 01:36:56;;;;;;;6.93;1.87;;;3.10;99.90;;;;;;7297750;32;20183;-60
2023/01/17 01:40:58;;;;;;;6.62;2.53;;;3.10;99.90;;;;;;7299057;32;20115;-60
2023/01/17 01:44:59;;;;;;;8.15;2.40;;;3.00;99.90;;;;;;7301797;32;20108;-59
2023/01/17 01:49:05;;;;;;;6.05;2.72;;;2.90;99.90;;;;;;7298978;32;20104;-60
2023/01/17 01:53:07;;;;;;;5.75;3.12;;;3.00;99.90;;;;;;7300761;32;20108;-60
2023/01/17 01:57:15;;;;;;;4.68;2.25;;;3.00;99.90;;;;;;7299545;32;20124;-60
2023/01/17 02:01:18;;;;;;;6.87;2.17;;;2.90;99.90;;;;;;7297714;32;20482;-60
2023/01/17 02:05:22;;;;;;;7.97;2.47;;;2.90;99.90;;;;;;7300153;32;20649;-60
2023/01/17 02:09:24;;;;;;;2.83;1.50;;;3.00;99.90;;;;;;7295837;32;20166;-60
2023/01/17 02:13:27;;;;;;;6.18;1.67;;;3.00;99.90;;;;;;7299817;32;20303;-61
2023/01/17 02:17:34;;;;;;;3.65;1.10;;;3.00;99.90;;;;;;7295660;32;20103;-60
2023/01/17 02:21:48;;;;;;;3.25;1.23;;;2.90;99.90;;;;;;7296743;32;20618;-60
2023/01/17 02:26:19;;;;;;;2.70;1.20;;;2.90;99.90;;;;;;7296874;32;20104;-59
2023/01/17 02:30:30;;;;;;;5.55;1.33;;;3.00;99.90;;;;;;7298699;32;20126;-60
2023/01/17 02:34:54;;;;;;;2.40;1.15;;;2.90;99.90;;;;;;7286122;32;20135;-60
2023/01/17 02:39:16;;;;;;;5.10;1.00;;;3.00;99.90;;;;;;7295618;32;20128;-60
2023/01/17 02:43:20;;;;;;;3.03;0.80;;;2.90;99.90;;;;;;7298421;32;20465;-60
2023/01/17 02:47:27;;;;;;;2.45;0.80;;;2.90;99.90;;;;;;7298243;32;20131;-61
2023/01/17 02:51:46;;;;;;;1.37;0.65;;;2.90;99.90;;;;;;7298645;32;20104;-60
2023/01/17 02:56:08;;;;;;;3.25;1.20;;;2.90;99.90;;;;;;7296968;32;20557;-60
2023/01/17 03:00:41;;;;;;;4.57;1.15;;;3.00;99.90;;;;;;7295256;32;20138;-60
2023/01/17 03:04:53;;;;;;;2.35;1.10;;;3.00;99.90;;;;;;7297728;32;20261;-60
2023/01/17 03:08:54;;;;;;;4.15;1.00;;;2.90;99.90;;;;;;7296853;32;20104;-60
2023/01/17 03:12:58;;;;;;;1.60;0.80;;;2.90;99.90;;;;;;7298554;32;20179;-60
2023/01/17 03:17:00;;;;;;;2.70;1.20;;;2.80;99.90;;;;;;7297673;32;20108;-60
2023/01/17 03:21:01;;;;;;;4.30;1.30;;;2.90;99.90;;;;;;7295402;32;20190;-60
2023/01/17 03:25:04;;;;;;;3.60;1.40;;;2.80;99.90;;;;;;7297413;32;20298;-60
2023/01/17 03:29:06;;;;;;;2.50;1.30;;;2.80;99.90;;;;;;7298365;32;20183;-60
2023/01/17 03:33:08;;;;;;;3.33;1.87;;;2.70;99.90;;;;;;7291503;32;20108;-61
2023/01/17 03:37:09;;;;;;;2.97;2.05;;;2.80;99.90;;;;;;7298234;32;20123;-60
2023/01/17 03:41:11;;;;;;;3.72;2.05;;;2.80;99.90;;;;;;7296303;32;20183;-60
2023/01/17 03:45:13;;;;;;;5.20;2.42;;;2.70;99.90;;;;;;7292855;32;20165;-61
2023/01/17 03:49:15;;;;;;;4.12;2.55;;;2.80;99.90;;;;;;7293586;32;20281;-60
2023/01/17 03:53:17;;;;;;;4.93;3.15;;;2.70;99.90;;;;;;7277559;32;20105;-62
2023/01/17 03:57:18;;;;;;;5.15;3.12;;;2.70;99.90;;;;;;7293717;32;20125;-61
2023/01/17 04:01:20;;;;;;;3.90;2.60;;;2.60;99.90;;;;;;7300155;32;20219;-60
2023/01/17 04:05:22;;;;;;;4.80;2.50;;;2.60;99.90;;;;;;7294026;32;20218;-60
2023/01/17 04:09:24;;;;;;;3.37;2.10;;;2.50;99.90;;;;;;7291006;32;20247;-60
2023/01/17 04:13:25;;;;;;;3.87;2.80;;;2.50;99.90;;;;;;7294230;32;20175;-60
2023/01/17 04:17:27;;;;;;;3.62;2.40;;;2.50;99.90;;;;;;7293639;32;20179;-61
2023/01/17 04:21:29;;;;;;;4.45;2.47;;;2.40;99.90;;;;;;7292717;32;20195;-60
2023/01/17 04:25:31;;;;;;;6.90;3.22;;;2.40;99.90;;;;;;7294771;32;20147;-60
2023/01/17 04:29:33;;;;;;;5.05;3.20;;;2.40;99.90;;;;;;7277582;32;20112;-61
2023/01/17 04:33:35;;;;;;;6.85;3.75;;;2.40;99.90;;;;;;7295663;32;20209;-60
2023/01/17 04:37:37;;;;;;;5.00;3.62;;;2.40;99.90;;;;;;7300068;32;20318;-60
2023/01/17 04:41:38;;;;;;;4.47;3.17;;;2.40;99.90;;;;;;7300425;32;20687;-60
2023/01/17 04:45:40;;;;;;;4.72;2.80;;;2.40;99.90;;;;;;7302541;32;20126;-59
2023/01/17 04:49:42;;;;;;;3.55;3.10;;;2.40;99.90;;;;;;7299785;32;20795;-60
2023/01/17 04:53:45;;;;;;;7.25;2.85;;;2.50;99.90;;;;;;7287329;32;20250;-60
2023/01/17 04:57:47;;;;;;;5.05;2.67;;;2.40;99.90;;;;;;7296804;32;20279;-60
2023/01/17 05:01:49;;;;;;;3.83;2.55;;;2.40;99.90;;;;;;7295555;32;20411;-60
2023/01/17 05:05:50;;;;;;;3.22;2.30;;;2.40;99.90;;;;;;7295598;32;20186;-60
2023/01/17 05:09:52;;;;;;;3.45;2.80;;;2.30;99.90;;;;;;7300898;32;20155;-62
2023/01/17 05:13:54;;;;;;;4.65;2.58;;;2.30;99.90;;;;;;7300400;32;20142;-60
2023/01/17 05:17:55;;;;;;;4.40;2.50;;;2.30;99.90;;;;;;7301471;32;20640;-60
2023/01/17 05:22:02;;;;;;;5.82;3.08;;;2.20;99.90;;;;;;7299115;32;20129;-60
2023/01/17 05:26:04;;;;;;;6.20;3.10;;;2.20;99.90;;;;;;7294362;32;20175;-60
2023/01/17 05:30:07;;;;;;;4.82;3.50;;;2.20;99.90;;;;;;7300107;32;20314;-59
2023/01/17 05:34:08;;;;;;;5.12;3.62;;;2.30;99.90;;;;;;7299515;32;20123;-60
2023/01/17 05:38:10;;;;;;;5.35;3.83;;;2.30;99.90;;;;;;7300951;32;20124;-60
2023/01/17 05:42:12;;;;;;;8.10;3.80;;;2.40;99.90;;;;;;7298278;32;20100;-62
2023/01/17 05:46:14;;;;;;;6.95;4.60;;;2.30;99.90;;;;;;7299701;32;20104;-60
2023/01/17 05:50:22;;;;;;;6.62;4.78;;;2.40;99.90;;;;;;7299672;32;20191;-60
2023/01/17 05:54:23;;;;;;;11.60;5.12;;;2.40;99.90;;;;;;7300237;32;20157;-60
2023/01/17 05:58:25;;;;;;;10.82;5.15;;;2.40;99.90;;;;;;7299423;32;20159;-60
2023/01/17 06:02:27;;;;;;;10.65;5.68;;;2.40;99.90;;;;;;7299263;32;20599;-60
2023/01/17 06:06:29;;;;;;;9.20;5.57;;;2.40;99.90;;;;;;7296581;32;20214;-60
2023/01/17 06:10:31;;;;;;;13.23;6.30;;;2.30;99.90;;;;;;7292473;32;20169;-60
2023/01/17 06:14:33;;;;;;;13.02;5.93;;;2.30;99.90;;;;;;7297432;32;20120;-60
2023/01/17 06:18:34;;;;;;;10.70;5.70;;;2.30;99.90;;;;;;7299613;32;20108;-60
2023/01/17 06:22:36;;;;;;;11.20;6.70;;;2.10;99.90;;;;;;7296781;32;20568;-60
2023/01/17 06:26:37;;;;;;;11.73;7.28;;;2.00;99.90;;;;;;7298706;32;20678;-60
2023/01/17 06:30:40;;;;;;;13.85;6.95;;;2.00;99.90;;;;;;7298557;32;20227;-60
2023/01/17 06:34:42;;;;;;;16.83;7.30;;;2.00;99.90;;;;;;7285780;32;20238;-60
2023/01/17 06:38:44;;;;;;;12.35;7.70;;;2.00;99.90;;;;;;7295677;32;20178;-60
2023/01/17 06:42:45;;;;;;;13.75;8.20;;;2.00;99.90;;;;;;7297595;32;20590;-60
2023/01/17 06:46:47;;;;;;;12.05;7.80;;;2.00;99.90;;;;;;7298260;32;20747;-60
2023/01/17 06:50:49;;;;;;;10.20;7.82;;;2.10;99.90;;;;;;7298436;32;20116;-60
2023/01/17 06:54:51;;;;;;;13.95;8.70;;;2.10;99.90;;;;;;7298036;32;20104;-60
2023/01/17 06:58:52;;;;;;;14.25;8.18;;;2.00;99.90;;;;;;7298100;32;20123;-61
2023/01/17 07:02:54;;;;;;;14.10;8.57;;;2.10;99.90;;;;;;7301040;32;20189;-61
2023/01/17 07:06:56;;;;;;;14.30;8.75;;;2.10;99.90;;;;;;7283823;32;20191;-61
2023/01/17 07:10:59;;;;;;;17.23;9.88;;;2.10;99.90;;;;;;7298822;32;20153;-60
2023/01/17 07:15:01;;;;;;;17.08;9.52;;;2.10;99.90;;;;;;7294089;32;20107;-61
2023/01/17 07:19:03;;;;;;;15.23;9.52;;;2.20;99.90;;;;;;7296487;32;20353;-61
2023/01/17 07:23:05;;;;;;;17.65;10.25;;;2.20;99.90;;;;;;7294119;32;20203;-62
2023/01/17 07:27:07;;;;;;;17.73;9.27;;;2.10;99.90;;;;;;7291005;32;20236;-61
2023/01/17 07:31:09;;;;;;;19.15;10.30;;;2.10;99.90;;;;;;7286983;32;20664;-61
2023/01/17 07:35:10;;;;;;;17.08;10.70;;;2.10;99.90;;;;;;7285950;32;20195;-62
2023/01/17 07:39:12;;;;;;;18.45;10.45;;;2.20;99.90;;;;;;7296172;32;20109;-61
2023/01/17 07:43:14;;;;;;;18.70;10.18;;;2.10;99.90;;;;;;7287598;32;20218;-61
2023/01/17 07:47:15;;;;;;;17.25;10.27;;;2.10;99.90;;;;;;7290848;32;20234;-60
2023/01/17 07:51:17;;;;;;;19.15;10.00;;;2.20;99.90;;;;;;7295363;32;20103;-60
2023/01/17 07:55:19;;;;;;;15.82;9.95;;;2.10;99.90;;;;;;7284299;32;20126;-59
2023/01/17 07:59:21;;;;;;;20.10;10.55;;;2.00;99.90;;;;;;7295666;32;20737;-60
2023/01/17 08:03:22;;;;;;;19.98;10.40;;;1.90;99.90;;;;;;7294546;32;20101;-59
2023/01/17 08:07:24;;;;;;;17.27;9.75;;;1.80;99.90;;;;;;7295502;32;20096;-59
2023/01/17 08:11:26;;;;;;;18.87;10.20;;;1.80;99.90;;;;;;7296609;32;20191;-59
2023/01/17 08:15:28;;;;;;;18.83;9.43;;;2.00;99.90;;;;;;7287782;32;20442;-59
2023/01/17 08:19:29;;;;;;;19.02;10.43;;;2.10;99.90;;;;;;7299857;32;20164;-60
2023/01/17 08:23:31;;;;;;;16.05;10.13;;;2.10;99.90;;;;;;7301928;32;20127;-59
2023/01/17 08:27:33;;;;;;;16.60;9.55;;;2.20;99.90;;;;;;7298877;32;20167;-60
2023/01/17 08:31:36;;;;;;;18.08;9.88;;;2.30;99.90;;;;;;7295694;32;20092;-59
2023/01/17 08:35:38;;;;;;;18.95;9.40;;;2.40;99.90;;;;;;7294433;32;20268;-60
2023/01/17 08:39:40;;;;;;;16.75;9.15;;;2.50;99.90;;;;;;7293258;32;20174;-59
2023/01/17 08:43:41;;;;;;;14.68;8.73;;;2.40;99.90;;;;;;7289623;32;20096;-60
2023/01/17 08:47:43;;;;;;;12.88;8.07;;;2.50;99.90;;;;;;7293935;32;20203;-60
2023/01/17 08:51:45;;;;;;;17.27;9.45;;;2.50;99.90;;;;;;7293684;32;20885;-60
2023/01/17 08:55:47;;;;;;;16.23;8.88;;;2.40;99.90;;;;;;7297487;32;20195;-59
2023/01/17 08:59:49;;;;;;;15.32;7.47;;;2.50;99.90;;;;;;7298737;32;20457;-59
2023/01/17 09:03:51;;;;;;;11.32;7.78;;;2.50;99.90;;;;;;7297125;32;20845;-60
2023/01/17 09:07:55;;;;;;;15.23;7.60;;;2.50;99.90;;;;;;7297111;32;20157;-60
2023/01/17 09:11:56;;;;;;;15.02;7.70;;;2.70;99.90;;;;;;7295922;32;20254;-59
2023/01/17 09:15:59;;;;;;;18.33;8.20;;;2.60;99.90;;;;;;7283815;32;20220;-60
2023/01/17 09:20:01;;;;;;;13.90;7.03;;;2.70;99.90;;;;;;7297323;32;20259;-60
2023/01/17 09:24:03;;;;;;;14.45;6.62;;;2.80;99.90;;;;;;7298423;32;20181;-60
2023/01/17 09:28:04;;;;;;;14.27;6.65;;;2.80;99.90;;;;;;7298464;32;20130;-59
2023/01/17 09:32:06;;;;;;;20.85;6.85;;;2.70;99.90;;;;;;7295111;32;20104;-59
2023/01/17 09:36:09;;;;;;;12.07;6.47;;;2.70;99.90;;;;;;7297971;32;20453;-59
2023/01/17 09:40:17;;;;;;;20.02;7.07;;;2.80;99.90;;;;;;7289372;32;20139;-60
2023/01/17 09:44:42;;;;;;;15.43;7.03;;;2.80;99.90;;;;;;7296610;32;20231;-60
2023/01/17 09:48:45;;;;;;;11.45;6.68;;;2.80;99.90;;;;;;7293278;32;20088;-60
2023/01/17 09:52:46;;;;;;;15.25;7.00;;;2.80;99.90;;;;;;7294110;32;20179;-60
2023/01/17 09:57:00;;;;;;;13.62;6.95;;;2.80;99.90;;;;;;7295501;32;20132;-60
2023/01/17 10:01:04;;;;;;;14.52;5.87;;;2.80;99.90;;;;;;7290002;32;20202;-59
2023/01/17 10:05:18;;;;;;;12.32;5.95;;;2.80;99.90;;;;;;7294244;32;20154;-60
2023/01/17 10:09:44;;;;;;;10.40;5.40;;;2.80;99.90;;;;;;7293806;32;20195;-59
2023/01/17 10:14:13;;;;;;;11.85;5.12;;;2.90;99.90;;;;;;7295384;32;20100;-61
2023/01/17 10:18:42;;;;;;;13.48;6.00;;;2.90;99.90;;;;;;7295415;32;20439;-60
2023/01/17 10:22:53;;;;;;;14.73;6.25;;;3.10;99.90;;;;;;7284923;32;20239;-60
2023/01/17 10:26:59;;;;;;;13.85;6.32;;;3.20;99.90;;;;;;7289106;32;20290;-59
2023/01/17 10:31:09;;;;;;;10.38;5.55;;;3.40;99.90;;;;;;7291065;32;20260;-59
2023/01/17 10:35:19;;;;;;;10.57;5.43;;;3.60;99.90;;;;;;7293979;32;20161;-59
2023/01/17 10:39:28;;;;;;;13.77;5.75;;;3.70;99.90;;;;;;7293844;32;20576;-59
2023/01/17 10:43:43;;;;;;;13.82;5.60;;;3.90;99.90;;;;;;7289831;32;20186;-58
2023/01/17 10:47:51;;;;;;;12.40;5.12;;;3.90;99.90;;;;;;7293484;32;20100;-58
2023/01/17 10:52:20;;;;;;;15.50;5.45;;;3.80;99.90;;;;;;7296473;32;20150;-58
2023/01/17 10:56:26;;;;;;;10.23;5.45;;;3.60;99.90;;;;;;7294566;32;20121;-59
2023/01/17 11:00:57;;;;;;;13.40;5.22;;;3.50;99.90;;;;;;7293711;32;20869;-59
2023/01/17 11:05:07;;;;;;;13.62;5.70;;;3.50;99.90;;;;;;7278809;32;20254;-59
2023/01/17 11:09:10;;;;;;;16.08;5.82;;;3.50;99.90;;;;;;7286343;32;21258;-59
2023/01/17 11:13:49;;;;;;;10.52;6.12;;;3.60;99.90;;;;;;7289486;32;20132;-60
2023/01/17 11:18:04;;;;;;;15.25;5.37;;;3.50;99.90;;;;;;7181350;32;20234;-59
2023/01/17 11:22:11;;;;;;;14.57;5.35;;;3.50;99.90;;;;;;7292435;32;20095;-59
2023/01/17 11:26:22;;;;;;;13.70;5.68;;;3.60;99.90;;;;;;7295184;32;20762;-59
2023/01/17 11:30:28;;;;;;;12.48;5.03;;;3.70;99.90;;;;;;7295682;32;20265;-59
2023/01/17 11:34:30;;;;;;;16.05;4.90;;;3.60;99.90;;;;;;7294173;32;20499;-59
2023/01/17 11:38:32;;;;;;;10.75;4.47;;;3.60;99.90;;;;;;7293081;32;20681;-57
2023/01/17 11:42:36;;;;;;;12.63;4.93;;;3.80;99.90;;;;;;7291806;32;20505;-60
2023/01/17 11:46:38;;;;;;;9.93;4.53;;;4.00;99.90;;;;;;7295253;32;20158;-60
2023/01/17 11:50:58;;;;;;;11.93;4.65;;;4.00;99.90;;;;;;7296405;32;20205;-59
2023/01/17 11:55:00;;;;;;;10.48;4.57;;;4.20;99.90;;;;;;7291864;32;20254;-59
2023/01/17 11:59:20;;;;;;;9.05;4.53;;;4.20;99.90;;;;;;7287523;32;20092;-60
2023/01/17 12:03:45;;;;;;;7.87;4.10;;;4.10;99.90;;;;;;7293239;32;20448;-60
2023/01/17 12:07:53;;;;;;;11.00;3.85;;;4.30;99.90;;;;;;7262665;32;20124;-59
2023/01/17 12:16:52;;;;;;;12.68;3.83;;;4.60;99.90;;;;;;7295806;32;20100;-59
2023/01/17 12:21:02;;;;;;;11.07;4.20;;;4.50;99.90;;;;;;7289063;32;20388;-59
2023/01/17 12:25:21;;;;;;;11.48;3.60;;;4.50;99.90;;;;;;7296861;32;20195;-59
2023/01/17 12:29:48;;;;;;;7.55;3.30;;;4.50;99.90;;;;;;7294628;32;20120;-59
2023/01/17 12:34:08;;;;;;;9.88;3.35;;;4.50;99.90;;;;;;7294215;32;20114;-60
2023/01/17 12:38:17;;;;;;;10.38;4.10;;;4.80;99.90;;;;;;7298327;32;20530;-60
2023/01/17 12:42:39;;;;;;;12.10;3.97;;;4.80;99.90;;;;;;7292187;32;20146;-60
2023/01/17 12:47:01;;;;;;;9.98;3.12;;;4.60;99.90;;;;;;7290696;32;20104;-60
2023/01/17 12:51:03;;;;;;;11.40;3.75;;;4.50;99.90;;;;;;7287061;32;20197;-60
2023/01/17 12:55:10;;;;;;;8.70;3.47;;;4.30;99.90;;;;;;7296338;32;20107;-59
2023/01/17 12:59:24;;;;;;;11.07;3.37;;;4.50;99.90;;;;;;7292057;32;20115;-59
2023/01/17 13:03:44;;;;;;;6.10;3.33;;;4.50;99.90;;;;;;7295165;32;20221;-60
2023/01/17 13:08:07;;;;;;;7.93;3.62;;;4.40;99.90;;;;;;7290812;32;20393;-60
2023/01/17 13:12:13;;;;;;;9.23;3.50;;;4.40;99.90;;;;;;7280949;32;20222;-61
2023/01/17 13:16:41;;;;;;;13.03;4.30;;;4.40;99.90;;;;;;7301149;32;20104;-61
2023/01/17 13:20:51;;;;;;;;;;;4.40;99.90;;;;;;7289949;32;20126;-60
2023/01/17 13:25:24;;;;;;;10.65;3.20;;;4.40;99.90;;;;;;7302247;32;20007;-60
2023/01/17 13:29:53;;;;;;;14.15;3.83;;;4.40;99.90;;;;;;7300933;32;20122;-60
2023/01/17 13:34:14;;;;;;;7.35;3.50;;;4.40;99.90;;;;;;7299065;32;20095;-60
2023/01/17 13:38:43;;;;;;;11.95;3.50;;;4.70;99.90;;;;;;7294750;32;20134;-62
2023/01/17 13:42:58;;;;;;;9.88;3.65;;;4.70;99.90;;;;;;7290329;32;20443;-60
2023/01/17 13:47:09;;;;;;;10.02;3.47;;;4.90;99.90;;;;;;7289920;32;20254;-61
2023/01/17 13:51:10;;;;;;;9.77;3.95;;;4.80;99.90;;;;;;7290053;32;20205;-59
2023/01/17 13:55:44;;;;;;;9.80;2.83;;;4.70;99.90;;;;;;7296627;32;20130;-60
2023/01/17 13:59:46;;;;;;;9.45;2.90;;;4.60;99.90;;;;;;7290570;32;20099;-61
2023/01/17 14:03:50;;;;;;;9.73;2.85;;;4.50;99.90;;;;;;7291697;32;20505;-61
2023/01/17 14:08:11;;;;;;;9.90;2.83;;;4.40;99.90;;;;;;7292266;32;20626;-60
2023/01/17 14:12:20;;;;;;;12.75;2.67;;;4.40;99.90;;;;;;7292119;32;20122;-61
2023/01/17 14:16:26;;;;;;;8.90;2.67;;;4.10;99.90;;;;;;7296067;32;20306;-61
2023/01/17 14:20:47;;;;;;;6.17;2.37;;;4.00;99.90;;;;;;7296915;32;20292;-60
2023/01/17 14:24:57;;;;;;;7.85;2.70;;;3.90;99.90;;;;;;7286678;32;20104;-61
2023/01/17 14:29:38;;;;;;;9.30;1.73;;;4.00;99.90;;;;;;7297610;32;20199;-60
2023/01/17 14:33:40;;;;;;;6.78;1.70;;;4.30;99.90;;;;;;7296163;32;20157;-60
2023/01/17 14:37:48;;;;;;;11.85;1.37;;;4.30;99.90;;;;;;7291644;32;20171;-62
2023/01/17 14:41:50;;;;;;;6.90;0.98;;;4.30;99.90;;;;;;7287591;32;20132;-61
2023/01/17 14:46:00;;;;;;;4.25;0.68;;;4.20;99.90;;;;;;7296319;32;20120;-60
2023/01/17 14:50:41;;;;;;;6.15;0.98;;;4.00;99.90;;;;;;7294733;32;20123;-61
2023/01/17 14:54:48;;;;;;;3.22;0.90;;;3.90;99.90;;;;;;7283968;32;20625;-60
2023/01/17 14:59:03;;;;;;;7.57;1.00;;;3.80;99.90;;;;;;7294979;32;20100;-61
2023/01/17 15:03:10;;;;;;;7.53;1.30;;;3.70;99.90;;;;;;7295580;32;20304;-61
2023/01/17 15:07:17;;;;;;;13.98;1.45;;;3.60;99.90;;;;;;7298405;32;20461;-61
2023/01/17 15:11:25;;;;;;;5.37;1.20;;;3.50;99.90;;;;;;7291902;32;20122;-61
2023/01/17 15:15:37;;;;;;;6.82;1.62;;;3.30;99.90;;;;;;7296234;32;20288;-60
2023/01/17 15:19:51;;;;;;;5.20;1.02;;;3.20;99.90;;;;;;7290757;32;20705;-61
2023/01/17 15:24:02;;;;;;;5.85;1.10;;;3.10;99.90;;;;;;7295638;32;20210;-61
2023/01/17 15:28:05;;;;;;;6.25;1.10;;;2.90;99.90;;;;;;7289805;32;20101;-61
2023/01/17 15:32:17;;;;;;;8.52;1.60;;;2.70;99.90;;;;;;7301222;32;20345;-62
2023/01/17 15:36:27;;;;;;;3.78;1.20;;;2.60;99.90;;;;;;7294321;32;20180;-62
2023/01/17 15:40:32;;;;;;;9.27;2.87;;;2.40;99.90;;;;;;7292901;32;20557;-60
2023/01/17 15:44:39;;;;;;;7.72;2.10;;;2.20;99.90;;;;;;7292391;32;20235;-59
2023/01/17 15:48:50;;;;;;;20.93;6.23;;;2.10;99.90;;;;;;7283017;32;20218;-59
2023/01/17 15:53:04;;;;;;;8.35;2.92;;;1.90;99.90;;;;;;7290012;32;20129;-60
2023/01/17 15:57:34;;;;;;;4.68;1.33;;;1.80;99.90;;;;;;7292118;32;20550;-60
2023/01/17 16:01:37;;;;;;;5.18;1.33;;;1.50;99.90;;;;;;7291823;32;20183;-60
2023/01/17 16:05:42;;;;;;;9.45;2.22;;;1.40;99.90;;;;;;7289164;32;20235;-60
2023/01/17 16:09:45;;;;;;;5.05;1.98;;;1.30;99.90;;;;;;7279049;32;20218;-59
2023/01/17 16:13:47;;;;;;;4.25;1.70;;;1.20;99.90;;;;;;7294388;32;20150;-59
2023/01/17 16:17:51;;;;;;;11.45;4.65;;;1.00;99.90;;;;;;7293300;32;20214;-59
2023/01/17 16:21:55;;;;;;;23.35;10.45;;;0.90;99.90;;;;;;7288007;32;20159;-59
2023/01/17 16:25:57;;;;;;;38.20;17.80;;;0.70;99.90;;;;;;7291645;32;20203;-59
2023/01/17 16:29:59;;;;;;;10.00;3.33;;;0.70;99.90;;;;;;7304055;32;20259;-59
2023/01/17 16:34:00;;;;;;;10.55;2.20;;;0.60;99.90;;;;;;7294401;32;20100;-60
2023/01/17 16:38:05;;;;;;;8.90;2.40;;;0.50;99.90;;;;;;7298073;32;20222;-60
2023/01/17 16:42:10;;;;;;;6.72;2.42;;;0.40;99.90;;;;;;7299113;32;20112;-59
2023/01/17 16:46:12;;;;;;;6.80;2.30;;;0.30;99.90;;;;;;7297492;32;20501;-59
2023/01/17 16:50:17;;;;;;;3.87;1.87;;;0.30;99.90;;;;;;7298561;32;20151;-60
2023/01/17 16:54:19;;;;;;;7.57;2.67;;;0.30;99.90;;;;;;7294071;32;20120;-59
2023/01/17 16:58:21;;;;;;;5.55;2.47;;;0.20;99.90;;;;;;7293934;32;20266;-58
2023/01/17 17:02:22;;;;;;;20.65;9.50;;;0.10;99.90;;;;;;7286344;32;20107;-60
2023/01/17 17:06:24;;;;;;;9.15;3.78;;;0.10;99.90;;;;;;7299028;32;20138;-59
2023/01/17 17:10:26;;;;;;;8.73;4.15;;;0.00;99.90;;;;;;7282261;32;20092;-59
2023/01/17 17:14:28;;;;;;;12.05;4.68;;;0.00;99.90;;;;;;7291397;32;20226;-60
2023/01/17 17:18:30;;;;;;;8.73;3.22;;;0.00;99.90;;;;;;7288560;32;20150;-61
2023/01/17 17:22:32;;;;;;;8.63;2.28;;;-0.10;99.90;;;;;;7295850;32;20499;-59
2023/01/17 17:26:35;;;;;;;5.82;2.05;;;-0.10;99.90;;;;;;7289619;32;20183;-60
2023/01/17 17:30:37;;;;;;;5.95;1.80;;;-0.20;99.90;;;;;;7296114;32;20169;-60
2023/01/17 17:34:39;;;;;;;5.15;2.28;;;-0.30;99.90;;;;;;7292528;32;20122;-59
2023/01/17 17:38:49;;;;;;;9.15;3.00;;;-0.30;99.90;;;;;;7295797;32;20564;-59
2023/01/17 17:42:51;;;;;;;7.50;2.40;;;-0.30;99.90;;;;;;7294890;32;20696;-59
2023/01/17 17:46:52;;;;;;;7.25;2.03;;;-0.30;99.90;;;;;;7295836;32;20103;-59
2023/01/17 17:50:56;;;;;;;6.07;2.83;;;-0.40;99.90;;;;;;7295821;32;20298;-59
2023/01/17 17:55:00;;;;;;;9.43;3.40;;;-0.40;99.90;;;;;;7290466;32;20297;-59
2023/01/17 17:59:03;;;;;;;20.05;10.55;;;-0.40;99.90;;;;;;7294539;32;20767;-59
2023/01/17 18:03:05;;;;;;;6.18;3.17;;;-0.40;99.90;;;;;;7291868;32;20280;-59
2023/01/17 18:07:07;;;;;;;10.70;4.37;;;-0.40;99.90;;;;;;7285339;32;20222;-59
2023/01/17 18:11:17;;;;;;;11.25;4.32;;;-0.50;99.90;;;;;;7289006;32;20220;-60
2023/01/17 18:15:20;;;;;;;7.72;3.60;;;-0.50;99.90;;;;;;7297063;32;20187;-61
2023/01/17 18:19:25;;;;;;;6.93;3.20;;;-0.60;99.90;;;;;;7297598;32;20118;-61
2023/01/17 18:23:26;;;;;;;7.10;3.58;;;-0.60;99.90;;;;;;7296138;32;20104;-60
2023/01/17 18:27:28;;;;;;;8.98;3.08;;;-0.60;99.90;;;;;;7290854;32;20683;-60
2023/01/17 18:31:30;;;;;;;6.50;3.08;;;-0.70;99.90;;;;;;7291838;32;20104;-60
2023/01/17 18:35:32;;;;;;;8.65;3.12;;;-0.70;99.90;;;;;;7287911;32;20303;-61
2023/01/17 18:39:34;;;;;;;10.90;3.25;;;-0.70;99.90;;;;;;7293281;32;20118;-60
2023/01/17 18:43:36;;;;;;;10.68;3.40;;;-0.70;99.90;;;;;;7293951;32;20215;-60
2023/01/17 18:47:37;;;;;;;9.00;3.60;;;-0.70;99.90;;;;;;7294809;32;20228;-60
2023/01/17 18:51:39;;;;;;;8.90;3.42;;;-0.70;99.90;;;;;;7296188;32;20221;-61
2023/01/17 18:55:41;;;;;;;9.73;4.90;;;-0.70;99.90;;;;;;7285770;32;20736;-60
2023/01/17 18:59:43;;;;;;;11.12;4.50;;;-0.70;99.90;;;;;;7287688;32;20197;-62
2023/01/17 19:03:47;;;;;;;10.32;4.62;;;-0.80;99.90;;;;;;7276771;32;20809;-61
2023/01/17 19:07:49;;;;;;;9.88;4.37;;;-0.80;99.90;;;;;;7296559;32;20733;-61
2023/01/17 19:11:50;;;;;;;53.17;27.40;;;-0.90;99.90;;;;;;7298276;32;20180;-62
2023/01/17 19:15:57;;;;;;;22.83;12.45;;;-0.90;99.90;;;;;;7299105;32;20335;-62
2023/01/17 19:19:59;;;;;;;9.68;5.20;;;-0.90;99.90;;;;;;7296191;32;20132;-61
2023/01/17 19:24:01;;;;;;;10.18;5.62;;;-1.00;99.90;;;;;;7295884;32;20122;-62
2023/01/17 19:28:03;;;;;;;15.55;5.72;;;-0.90;99.90;;;;;;7293939;32;20206;-63
2023/01/17 19:32:06;;;;;;;21.40;10.20;;;-0.90;99.90;;;;;;7271029;32;20186;-62
2023/01/17 19:36:12;;;;;;;22.58;11.48;;;-1.00;99.90;;;;;;7293988;32;20095;-62
2023/01/17 19:40:16;;;;;;;16.27;7.62;;;-0.90;99.90;;;;;;7294013;32;20539;-62
2023/01/17 19:44:17;;;;;;;14.63;6.60;;;-1.10;99.90;;;;;;7295053;32;20123;-61
2023/01/17 19:48:21;;;;;;;15.18;6.82;;;-1.00;99.90;;;;;;7298446;32;20118;-62
2023/01/17 19:52:23;;;;;;;13.05;6.45;;;-1.00;99.90;;;;;;7295934;32;20507;-62
2023/01/17 19:56:25;;;;;;;12.70;5.80;;;-1.10;99.90;;;;;;7299750;32;20173;-62
2023/01/17 20:00:27;;;;;;;13.55;7.95;;;-1.20;99.90;;;;;;7295425;32;20122;-62
2023/01/17 20:04:31;;;;;;;15.38;7.50;;;-1.10;99.90;;;;;;7294458;32;20103;-62
2023/01/17 20:08:33;;;;;;;13.27;7.18;;;-1.20;99.90;;;;;;7295835;32;20142;-61
2023/01/17 20:12:35;;;;;;;15.05;6.37;;;-1.10;99.90;;;;;;7294837;32;20174;-61
2023/01/17 20:16:37;;;;;;;13.23;5.90;;;-1.20;99.90;;;;;;7294958;32;20118;-62
2023/01/17 20:20:40;;;;;;;12.37;6.28;;;-1.30;99.90;;;;;;7295237;32;20202;-61
2023/01/17 20:24:57;;;;;;;11.57;7.05;;;-1.30;99.90;;;;;;7296343;32;20487;-61
2023/01/17 20:29:01;;;;;;;11.35;6.87;;;-1.30;99.90;;;;;;7293705;32;20683;-61
2023/01/17 20:33:02;;;;;;;16.17;8.25;;;-1.30;99.90;;;;;;7292843;32;20143;-62
2023/01/17 20:37:07;;;;;;;16.87;6.57;;;-1.30;99.90;;;;;;7285600;32;20534;-61
2023/01/17 20:41:12;;;;;;;17.70;7.55;;;-1.40;99.90;;;;;;7293688;32;20224;-60
2023/01/17 20:45:14;;;;;;;15.40;7.40;;;-1.40;99.90;;;;;;7278561;32;21060;-61
2023/01/17 20:49:18;;;;;;;17.27;8.73;;;-1.40;99.90;;;;;;7292935;32;20104;-61
2023/01/17 20:53:20;;;;;;;21.05;9.60;;;-1.40;99.90;;;;;;7294471;32;20096;-61
2023/01/17 20:57:22;;;;;;;18.90;8.88;;;-1.50;99.90;;;;;;7290451;32;20242;-62
2023/01/17 21:01:24;;;;;;;20.27;7.90;;;-1.50;99.90;;;;;;7290638;32;20104;-61
2023/01/17 21:05:26;;;;;;;12.37;6.40;;;-1.50;99.90;;;;;;7293586;32;20201;-61
2023/01/17 21:09:28;;;;;;;14.05;6.28;;;-1.40;99.90;;;;;;7291972;32;20095;-61
2023/01/17 21:13:30;;;;;;;10.50;6.30;;;-1.50;99.90;;;;;;7296353;32;20540;-61
2023/01/17 21:17:32;;;;;;;11.40;6.43;;;-1.50;99.90;;;;;;7292703;32;20131;-62
2023/01/17 21:21:35;;;;;;;19.42;7.60;;;-1.50;99.90;;;;;;7298223;32;20232;-61
2023/01/17 21:25:37;;;;;;;22.27;8.55;;;-1.50;99.90;;;;;;7295804;32;20677;-62
2023/01/17 21:29:39;;;;;;;18.08;8.25;;;-1.60;99.90;;;;;;7298305;32;20973;-62
2023/01/17 21:33:41;;;;;;;19.92;8.63;;;-1.60;99.90;;;;;;7307351;32;20103;-62
2023/01/17 21:37:46;;;;;;;16.70;7.40;;;-1.60;99.90;;;;;;7305980;32;20099;-61
2023/01/17 21:41:49;;;;;;;12.68;7.32;;;-1.60;99.90;;;;;;7306431;32;20131;-62
2023/01/17 21:45:51;;;;;;;16.00;7.05;;;-1.70;99.90;;;;;;7288772;32;20150;-62
2023/01/17 21:49:53;;;;;;;13.90;6.62;;;-1.70;99.90;;;;;;7292446;32;20104;-62
2023/01/17 21:53:54;;;;;;;12.93;5.80;;;-1.60;99.90;;;;;;7304070;32;20131;-62
2023/01/17 22:02:16;;;;;;;9.27;6.45;;;-1.80;99.90;;;;;;7304762;32;20116;-62
2023/01/17 22:06:20;;;;;;;12.88;6.93;;;-1.80;99.90;;;;;;7309792;32;20097;-61
2023/01/17 22:10:21;;;;;;;16.20;6.82;;;-1.90;99.90;;;;;;7300139;32;20104;-62
2023/01/17 22:14:23;;;;;;;16.50;7.65;;;-1.90;99.90;;;;;;7303874;32;20100;-63
2023/01/17 22:18:25;;;;;;;16.35;8.65;;;-2.00;99.90;;;;;;7305646;32;20381;-62
2023/01/17 22:22:31;;;;;;;15.10;8.13;;;-2.00;99.90;;;;;;7303857;32;20122;-61
2023/01/17 22:26:33;;;;;;;13.68;6.93;;;-2.00;99.90;;;;;;7308670;32;20501;-61
2023/01/17 22:30:36;;;;;;;15.52;7.18;;;-2.00;99.90;;;;;;7303777;32;20127;-61
2023/01/17 22:34:37;;;;;;;10.18;6.37;;;-2.00;99.90;;;;;;7308000;32;20520;-62
2023/01/17 22:38:43;;;;;;;17.90;7.78;;;-2.00;99.90;;;;;;7302938;32;20235;-61
2023/01/17 22:42:45;;;;;;;14.07;7.37;;;-2.00;99.90;;;;;;7299045;32;20338;-60
2023/01/17 22:46:47;;;;;;;17.48;7.45;;;-2.00;99.90;;;;;;7297106;32;20183;-61
2023/01/17 22:50:49;;;;;;;12.77;7.05;;;-2.00;99.90;;;;;;7299128;32;20097;-61
2023/01/17 22:54:50;;;;;;;15.02;7.65;;;-2.20;99.90;;;;;;7289382;32;20226;-61